Aérodrome :
LOGIN :

S'inscrire | Disclaimer

   EN    FR    IT 

 










Légende :    VFR   VFR Marginal   IFR   IFR Intensif   IFR Très Intensif
Visi : 
Plafond : 
>= 8 km
>= 3000ft
5 à 8 km
1000 à 3000 ft
1500m à 5 km
500 à 1000 ft
800 à 1500m
200 à 500 ft
< 800m
< 200 ft
Symboles :   Orages  Brouillard  Fortes neiges  Fortes précipitations  Vent > 20 kt
SIGMETs :   Divers  Orages  Givrage  Turbulence  Onde Orograph.  Cendres Volcan.






- Altitude de l'aérodrome : 302 ft
- Code IATA : MAH


LEMH - Menorca

DERNIER METAR :
  • 210430Z 15012KT 120V180 8000 FEW008 20/19 Q1014

METARs EXPIRÉS :
  • 210400Z 15013KT 7000 FEW008 20/18 Q1013
  • 210330Z AUTO 15015KT 9999 FEW007/// SCT014/// 20/18 Q1013
  • 210300Z AUTO 14014KT 9999 FEW007/// SCT008/// BKN012/// 20/18 Q1013
  • 210230Z AUTO 14014KT 9999 FEW007/// SCT011/// 20/18 Q1014
  • 210200Z AUTO 14014KT 9999 FEW007/// 20/18 Q1014

TAF TAF LEMH
Valide du 21 à 03h jusqu'au 22 à 03h UTC


210200Z 2103/2203 16014KT 9999 FEW008 TX25/2112Z TN16/2106Z
PROB30
TEMPO 2103/2106 4000 BR BKN010
TEMPO 2110/2114 20018G28KT
BECMG 2118/2120 18005KT



MET'MAP, la Météo Aéronautique d'un coup d'oeil ! - Copyright ORBIFLY Décembre 2007 - Disclaimer

ORBIFLY MET'MAP TEAM :

Programmation & Développement : Alexandra Zaïnal
Sur une idée originale de : Baudouin d'Aumeries
Assistance à la programmation : Marc-Olivier Méhu
Soutien technique & logistique : Manuel Goepfert

Contact : metmap@orbifly.com




SOURCES & CREDITS :

   NOAA